sensor_id;sensor_type;location;lat;lon;timestamp;P1;durP1;ratioP1;P2;durP2;ratioP2
9823;SDS011;4951;50.778;7.196;2023-08-06T00:02:15;4.57;;;4.17;;
9823;SDS011;4951;50.778;7.196;2023-08-06T00:04:44;6.40;;;5.50;;
9823;SDS011;4951;50.778;7.196;2023-08-06T00:07:12;5.10;;;4.60;;
9823;SDS011;4951;50.778;7.196;2023-08-06T00:09:40;5.43;;;4.53;;
9823;SDS011;4951;50.778;7.196;2023-08-06T00:12:09;6.17;;;4.63;;
9823;SDS011;4951;50.778;7.196;2023-08-06T00:14:37;4.80;;;4.30;;
9823;SDS011;4951;50.778;7.196;2023-08-06T00:17:04;5.57;;;5.03;;
9823;SDS011;4951;50.778;7.196;2023-08-06T00:19:33;7.40;;;5.40;;
9823;SDS011;4951;50.778;7.196;2023-08-06T00:22:05;7.67;;;4.63;;
9823;SDS011;4951;50.778;7.196;2023-08-06T00:24:33;5.73;;;5.23;;
9823;SDS011;4951;50.778;7.196;2023-08-06T00:27:02;7.23;;;5.60;;
9823;SDS011;4951;50.778;7.196;2023-08-06T00:29:31;7.87;;;5.97;;
9823;SDS011;4951;50.778;7.196;2023-08-06T00:31:59;7.37;;;6.63;;
9823;SDS011;4951;50.778;7.196;2023-08-06T00:34:27;6.20;;;5.60;;
9823;SDS011;4951;50.778;7.196;2023-08-06T00:36:54;6.43;;;5.10;;
9823;SDS011;4951;50.778;7.196;2023-08-06T00:39:23;7.07;;;6.30;;
9823;SDS011;4951;50.778;7.196;2023-08-06T00:41:50;7.00;;;5.73;;
9823;SDS011;4951;50.778;7.196;2023-08-06T00:44:18;7.57;;;6.00;;
9823;SDS011;4951;50.778;7.196;2023-08-06T00:46:46;5.53;;;4.83;;
9823;SDS011;4951;50.778;7.196;2023-08-06T00:49:15;5.97;;;4.73;;
9823;SDS011;4951;50.778;7.196;2023-08-06T00:51:43;8.53;;;5.50;;
9823;SDS011;4951;50.778;7.196;2023-08-06T00:54:11;5.63;;;5.10;;
9823;SDS011;4951;50.778;7.196;2023-08-06T00:56:40;6.07;;;5.47;;
9823;SDS011;4951;50.778;7.196;2023-08-06T00:59:08;6.57;;;5.07;;
9823;SDS011;4951;50.778;7.196;2023-08-06T01:01:37;6.37;;;5.20;;
9823;SDS011;4951;50.778;7.196;2023-08-06T01:04:04;7.20;;;5.60;;
9823;SDS011;4951;50.778;7.196;2023-08-06T01:06:35;5.00;;;4.50;;
9823;SDS011;4951;50.778;7.196;2023-08-06T01:09:10;5.40;;;4.90;;
9823;SDS011;4951;50.778;7.196;2023-08-06T01:11:51;6.33;;;5.67;;
9823;SDS011;4951;50.778;7.196;2023-08-06T01:14:26;5.00;;;4.60;;
9823;SDS011;4951;50.778;7.196;2023-08-06T01:17:00;5.27;;;4.57;;
9823;SDS011;4951;50.778;7.196;2023-08-06T01:19:30;5.57;;;5.07;;
9823;SDS011;4951;50.778;7.196;2023-08-06T01:22:00;7.43;;;4.90;;
9823;SDS011;4951;50.778;7.196;2023-08-06T01:24:31;6.37;;;4.27;;
9823;SDS011;4951;50.778;7.196;2023-08-06T01:27:02;5.00;;;4.60;;
9823;SDS011;4951;50.778;7.196;2023-08-06T01:29:34;5.43;;;4.90;;
9823;SDS011;4951;50.778;7.196;2023-08-06T01:32:06;5.43;;;4.80;;
9823;SDS011;4951;50.778;7.196;2023-08-06T01:34:36;5.20;;;4.20;;
9823;SDS011;4951;50.778;7.196;2023-08-06T01:37:08;4.23;;;3.83;;
9823;SDS011;4951;50.778;7.196;2023-08-06T01:39:36;7.30;;;4.83;;
9823;SDS011;4951;50.778;7.196;2023-08-06T01:42:04;4.67;;;4.27;;
9823;SDS011;4951;50.778;7.196;2023-08-06T01:44:33;5.37;;;3.80;;
9823;SDS011;4951;50.778;7.196;2023-08-06T01:47:01;4.73;;;4.23;;
9823;SDS011;4951;50.778;7.196;2023-08-06T01:49:29;6.83;;;4.47;;
9823;SDS011;4951;50.778;7.196;2023-08-06T01:52:00;5.33;;;3.90;;
9823;SDS011;4951;50.778;7.196;2023-08-06T01:54:30;5.73;;;3.87;;
9823;SDS011;4951;50.778;7.196;2023-08-06T01:56:57;4.00;;;3.70;;
9823;SDS011;4951;50.778;7.196;2023-08-06T01:59:24;6.13;;;4.10;;
9823;SDS011;4951;50.778;7.196;2023-08-06T02:01:52;6.60;;;4.37;;
9823;SDS011;4951;50.778;7.196;2023-08-06T02:04:19;4.77;;;3.53;;
9823;SDS011;4951;50.778;7.196;2023-08-06T02:06:46;5.07;;;3.73;;
9823;SDS011;4951;50.778;7.196;2023-08-06T02:09:14;5.17;;;3.73;;
9823;SDS011;4951;50.778;7.196;2023-08-06T02:11:44;4.83;;;4.43;;
9823;SDS011;4951;50.778;7.196;2023-08-06T02:14:12;7.53;;;4.70;;
9823;SDS011;4951;50.778;7.196;2023-08-06T02:16:42;5.73;;;4.60;;
9823;SDS011;4951;50.778;7.196;2023-08-06T02:19:09;5.83;;;4.17;;
9823;SDS011;4951;50.778;7.196;2023-08-06T02:21:37;3.90;;;3.50;;
9823;SDS011;4951;50.778;7.196;2023-08-06T02:24:06;4.47;;;4.10;;
9823;SDS011;4951;50.778;7.196;2023-08-06T02:26:33;5.00;;;4.60;;
9823;SDS011;4951;50.778;7.196;2023-08-06T02:29:05;4.53;;;4.13;;
9823;SDS011;4951;50.778;7.196;2023-08-06T02:31:34;6.03;;;4.70;;
9823;SDS011;4951;50.778;7.196;2023-08-06T02:34:02;8.73;;;4.60;;
9823;SDS011;4951;50.778;7.196;2023-08-06T02:36:29;5.90;;;4.37;;
9823;SDS011;4951;50.778;7.196;2023-08-06T02:38:58;6.83;;;4.97;;
9823;SDS011;4951;50.778;7.196;2023-08-06T02:41:26;5.97;;;4.73;;
9823;SDS011;4951;50.778;7.196;2023-08-06T02:43:53;4.67;;;4.27;;
9823;SDS011;4951;50.778;7.196;2023-08-06T02:46:24;5.27;;;4.60;;
9823;SDS011;4951;50.778;7.196;2023-08-06T02:48:52;6.13;;;5.50;;
9823;SDS011;4951;50.778;7.196;2023-08-06T02:51:19;5.97;;;5.20;;
9823;SDS011;4951;50.778;7.196;2023-08-06T02:53:47;6.97;;;5.20;;
9823;SDS011;4951;50.778;7.196;2023-08-06T02:56:16;6.03;;;5.10;;
9823;SDS011;4951;50.778;7.196;2023-08-06T02:58:52;5.90;;;4.50;;
9823;SDS011;4951;50.778;7.196;2023-08-06T03:01:40;6.60;;;4.73;;
9823;SDS011;4951;50.778;7.196;2023-08-06T03:04:17;5.20;;;4.70;;
9823;SDS011;4951;50.778;7.196;2023-08-06T03:06:47;5.67;;;5.03;;
9823;SDS011;4951;50.778;7.196;2023-08-06T03:09:20;5.80;;;4.80;;
9823;SDS011;4951;50.778;7.196;2023-08-06T03:11:50;6.00;;;4.47;;
9823;SDS011;4951;50.778;7.196;2023-08-06T03:14:19;5.87;;;4.60;;
9823;SDS011;4951;50.778;7.196;2023-08-06T03:16:48;4.87;;;3.93;;
9823;SDS011;4951;50.778;7.196;2023-08-06T03:19:18;6.90;;;4.87;;
9823;SDS011;4951;50.778;7.196;2023-08-06T03:21:46;5.77;;;5.10;;
9823;SDS011;4951;50.778;7.196;2023-08-06T03:24:14;6.03;;;4.30;;
9823;SDS011;4951;50.778;7.196;2023-08-06T03:26:43;5.50;;;4.30;;
9823;SDS011;4951;50.778;7.196;2023-08-06T03:29:11;7.37;;;5.00;;
9823;SDS011;4951;50.778;7.196;2023-08-06T03:31:40;7.10;;;4.80;;
9823;SDS011;4951;50.778;7.196;2023-08-06T03:34:10;5.37;;;4.53;;
9823;SDS011;4951;50.778;7.196;2023-08-06T03:36:37;6.70;;;4.83;;
9823;SDS011;4951;50.778;7.196;2023-08-06T03:39:06;5.70;;;4.87;;
9823;SDS011;4951;50.778;7.196;2023-08-06T03:41:34;5.93;;;4.60;;
9823;SDS011;4951;50.778;7.196;2023-08-06T03:44:02;5.63;;;4.53;;
9823;SDS011;4951;50.778;7.196;2023-08-06T03:46:29;5.80;;;5.10;;
9823;SDS011;4951;50.778;7.196;2023-08-06T03:49:01;8.80;;;5.67;;
9823;SDS011;4951;50.778;7.196;2023-08-06T03:51:30;5.80;;;5.00;;
9823;SDS011;4951;50.778;7.196;2023-08-06T03:53:59;6.20;;;5.17;;
9823;SDS011;4951;50.778;7.196;2023-08-06T03:56:26;6.47;;;5.00;;
9823;SDS011;4951;50.778;7.196;2023-08-06T03:58:53;5.87;;;5.00;;
9823;SDS011;4951;50.778;7.196;2023-08-06T04:01:22;6.33;;;4.87;;
9823;SDS011;4951;50.778;7.196;2023-08-06T04:03:49;7.10;;;4.67;;
9823;SDS011;4951;50.778;7.196;2023-08-06T04:06:16;5.30;;;4.47;;
9823;SDS011;4951;50.778;7.196;2023-08-06T04:08:54;5.20;;;4.27;;
9823;SDS011;4951;50.778;7.196;2023-08-06T04:11:21;6.27;;;4.50;;
9823;SDS011;4951;50.778;7.196;2023-08-06T04:13:48;7.53;;;4.93;;
9823;SDS011;4951;50.778;7.196;2023-08-06T04:16:16;5.30;;;4.40;;
9823;SDS011;4951;50.778;7.196;2023-08-06T04:18:43;5.90;;;4.90;;
9823;SDS011;4951;50.778;7.196;2023-08-06T04:21:12;6.67;;;4.90;;
9823;SDS011;4951;50.778;7.196;2023-08-06T04:23:39;6.60;;;3.93;;
9823;SDS011;4951;50.778;7.196;2023-08-06T04:26:09;8.07;;;4.60;;
9823;SDS011;4951;50.778;7.196;2023-08-06T04:28:37;6.47;;;4.13;;
9823;SDS011;4951;50.778;7.196;2023-08-06T04:31:04;4.77;;;4.20;;
9823;SDS011;4951;50.778;7.196;2023-08-06T04:33:33;6.30;;;3.80;;
9823;SDS011;4951;50.778;7.196;2023-08-06T04:36:08;4.70;;;3.50;;
9823;SDS011;4951;50.778;7.196;2023-08-06T04:38:35;6.30;;;3.77;;
9823;SDS011;4951;50.778;7.196;2023-08-06T04:41:03;3.70;;;3.40;;
9823;SDS011;4951;50.778;7.196;2023-08-06T04:43:32;5.73;;;3.90;;
9823;SDS011;4951;50.778;7.196;2023-08-06T04:46:00;5.87;;;4.33;;
9823;SDS011;4951;50.778;7.196;2023-08-06T04:48:27;4.80;;;3.70;;
9823;SDS011;4951;50.778;7.196;2023-08-06T04:50:54;5.63;;;3.57;;
9823;SDS011;4951;50.778;7.196;2023-08-06T04:53:21;6.63;;;3.50;;
9823;SDS011;4951;50.778;7.196;2023-08-06T04:55:49;6.53;;;3.60;;
9823;SDS011;4951;50.778;7.196;2023-08-06T04:58:16;5.57;;;3.60;;
9823;SDS011;4951;50.778;7.196;2023-08-06T05:00:44;5.60;;;3.67;;
9823;SDS011;4951;50.778;7.196;2023-08-06T05:03:12;6.07;;;3.77;;
9823;SDS011;4951;50.778;7.196;2023-08-06T05:05:39;4.50;;;3.20;;
9823;SDS011;4951;50.778;7.196;2023-08-06T05:08:07;4.63;;;2.83;;
9823;SDS011;4951;50.778;7.196;2023-08-06T05:10:41;3.43;;;3.10;;
9823;SDS011;4951;50.778;7.196;2023-08-06T05:13:10;5.00;;;3.47;;
9823;SDS011;4951;50.778;7.196;2023-08-06T05:15:38;5.30;;;3.23;;
9823;SDS011;4951;50.778;7.196;2023-08-06T05:18:10;3.57;;;2.93;;
9823;SDS011;4951;50.778;7.196;2023-08-06T05:20:39;5.27;;;2.97;;
9823;SDS011;4951;50.778;7.196;2023-08-06T05:23:07;3.87;;;3.17;;
9823;SDS011;4951;50.778;7.196;2023-08-06T05:25:35;3.83;;;2.87;;
9823;SDS011;4951;50.778;7.196;2023-08-06T05:28:04;3.80;;;2.40;;
9823;SDS011;4951;50.778;7.196;2023-08-06T05:30:38;4.13;;;2.53;;
9823;SDS011;4951;50.778;7.196;2023-08-06T05:33:06;4.10;;;2.30;;
9823;SDS011;4951;50.778;7.196;2023-08-06T05:35:35;3.13;;;2.80;;
9823;SDS011;4951;50.778;7.196;2023-08-06T05:38:03;3.67;;;2.20;;
9823;SDS011;4951;50.778;7.196;2023-08-06T05:40:32;3.23;;;2.40;;
9823;SDS011;4951;50.778;7.196;2023-08-06T05:42:59;4.43;;;2.77;;
9823;SDS011;4951;50.778;7.196;2023-08-06T05:45:28;3.67;;;2.10;;
9823;SDS011;4951;50.778;7.196;2023-08-06T05:47:56;2.97;;;2.40;;
9823;SDS011;4951;50.778;7.196;2023-08-06T05:50:24;2.23;;;2.00;;
9823;SDS011;4951;50.778;7.196;2023-08-06T05:52:53;2.13;;;1.97;;
9823;SDS011;4951;50.778;7.196;2023-08-06T05:55:21;3.50;;;2.00;;
9823;SDS011;4951;50.778;7.196;2023-08-06T05:57:48;2.80;;;1.80;;
9823;SDS011;4951;50.778;7.196;2023-08-06T06:00:17;2.43;;;1.87;;
9823;SDS011;4951;50.778;7.196;2023-08-06T06:02:48;1.70;;;1.60;;
9823;SDS011;4951;50.778;7.196;2023-08-06T06:05:15;2.40;;;2.20;;
9823;SDS011;4951;50.778;7.196;2023-08-06T06:07:42;3.30;;;1.83;;
9823;SDS011;4951;50.778;7.196;2023-08-06T06:10:11;3.23;;;2.40;;
9823;SDS011;4951;50.778;7.196;2023-08-06T06:12:39;4.37;;;2.43;;
9823;SDS011;4951;50.778;7.196;2023-08-06T06:15:07;4.30;;;3.00;;
9823;SDS011;4951;50.778;7.196;2023-08-06T06:17:36;4.43;;;2.63;;
9823;SDS011;4951;50.778;7.196;2023-08-06T06:20:04;5.87;;;3.53;;
9823;SDS011;4951;50.778;7.196;2023-08-06T06:22:32;4.13;;;2.23;;
9823;SDS011;4951;50.778;7.196;2023-08-06T06:25:00;2.90;;;2.20;;
9823;SDS011;4951;50.778;7.196;2023-08-06T06:27:29;4.07;;;2.43;;
9823;SDS011;4951;50.778;7.196;2023-08-06T06:29:56;3.77;;;3.00;;
9823;SDS011;4951;50.778;7.196;2023-08-06T06:32:23;4.00;;;2.33;;
9823;SDS011;4951;50.778;7.196;2023-08-06T06:34:51;3.30;;;2.40;;
9823;SDS011;4951;50.778;7.196;2023-08-06T06:37:20;2.73;;;2.50;;
9823;SDS011;4951;50.778;7.196;2023-08-06T06:39:49;4.47;;;2.93;;
9823;SDS011;4951;50.778;7.196;2023-08-06T06:42:16;4.40;;;2.70;;
9823;SDS011;4951;50.778;7.196;2023-08-06T06:44:52;3.43;;;2.63;;
9823;SDS011;4951;50.778;7.196;2023-08-06T06:47:19;4.60;;;3.33;;
9823;SDS011;4951;50.778;7.196;2023-08-06T06:49:47;3.13;;;2.30;;
9823;SDS011;4951;50.778;7.196;2023-08-06T06:52:14;3.80;;;3.33;;
9823;SDS011;4951;50.778;7.196;2023-08-06T06:54:42;2.27;;;2.07;;
9823;SDS011;4951;50.778;7.196;2023-08-06T06:57:09;2.37;;;2.17;;
9823;SDS011;4951;50.778;7.196;2023-08-06T06:59:37;2.30;;;2.07;;
9823;SDS011;4951;50.778;7.196;2023-08-06T07:02:06;2.50;;;2.00;;
9823;SDS011;4951;50.778;7.196;2023-08-06T07:04:33;4.70;;;2.70;;
9823;SDS011;4951;50.778;7.196;2023-08-06T07:07:01;3.13;;;1.97;;
9823;SDS011;4951;50.778;7.196;2023-08-06T07:09:28;3.33;;;2.10;;
9823;SDS011;4951;50.778;7.196;2023-08-06T07:11:55;3.23;;;2.20;;
9823;SDS011;4951;50.778;7.196;2023-08-06T07:14:24;3.40;;;2.03;;
9823;SDS011;4951;50.778;7.196;2023-08-06T07:16:52;2.70;;;2.30;;
9823;SDS011;4951;50.778;7.196;2023-08-06T07:19:20;2.83;;;1.70;;
9823;SDS011;4951;50.778;7.196;2023-08-06T07:21:47;1.93;;;1.60;;
9823;SDS011;4951;50.778;7.196;2023-08-06T07:24:15;2.00;;;1.80;;
9823;SDS011;4951;50.778;7.196;2023-08-06T07:26:43;2.87;;;1.57;;
9823;SDS011;4951;50.778;7.196;2023-08-06T07:29:11;2.10;;;2.00;;
9823;SDS011;4951;50.778;7.196;2023-08-06T07:31:39;1.60;;;1.50;;
9823;SDS011;4951;50.778;7.196;2023-08-06T07:34:07;3.30;;;1.83;;
9823;SDS011;4951;50.778;7.196;2023-08-06T07:36:36;1.63;;;1.20;;
9823;SDS011;4951;50.778;7.196;2023-08-06T07:39:03;2.27;;;1.50;;
9823;SDS011;4951;50.778;7.196;2023-08-06T07:41:31;1.77;;;1.63;;
9823;SDS011;4951;50.778;7.196;2023-08-06T07:44:00;1.67;;;1.50;;
9823;SDS011;4951;50.778;7.196;2023-08-06T07:46:27;2.40;;;1.70;;
9823;SDS011;4951;50.778;7.196;2023-08-06T07:48:54;2.07;;;1.60;;
9823;SDS011;4951;50.778;7.196;2023-08-06T07:51:21;1.93;;;1.60;;
9823;SDS011;4951;50.778;7.196;2023-08-06T07:53:50;2.63;;;1.70;;
9823;SDS011;4951;50.778;7.196;2023-08-06T07:56:17;4.00;;;2.07;;
9823;SDS011;4951;50.778;7.196;2023-08-06T07:58:45;2.23;;;1.70;;
9823;SDS011;4951;50.778;7.196;2023-08-06T08:01:12;3.03;;;2.23;;
9823;SDS011;4951;50.778;7.196;2023-08-06T08:03:41;2.27;;;1.80;;
9823;SDS011;4951;50.778;7.196;2023-08-06T08:06:09;2.60;;;1.90;;
9823;SDS011;4951;50.778;7.196;2023-08-06T08:08:37;4.10;;;2.00;;
9823;SDS011;4951;50.778;7.196;2023-08-06T08:11:07;2.23;;;2.00;;
9823;SDS011;4951;50.778;7.196;2023-08-06T08:13:37;5.53;;;2.20;;
9823;SDS011;4951;50.778;7.196;2023-08-06T08:16:04;3.07;;;2.00;;
9823;SDS011;4951;50.778;7.196;2023-08-06T08:18:33;2.17;;;1.80;;
9823;SDS011;4951;50.778;7.196;2023-08-06T08:21:01;2.30;;;1.70;;
9823;SDS011;4951;50.778;7.196;2023-08-06T08:23:29;1.97;;;1.80;;
9823;SDS011;4951;50.778;7.196;2023-08-06T08:25:59;3.93;;;1.93;;
9823;SDS011;4951;50.778;7.196;2023-08-06T08:28:30;3.57;;;1.83;;
9823;SDS011;4951;50.778;7.196;2023-08-06T08:30:58;4.50;;;2.43;;
9823;SDS011;4951;50.778;7.196;2023-08-06T08:33:29;2.13;;;1.90;;
9823;SDS011;4951;50.778;7.196;2023-08-06T08:35:57;5.27;;;2.67;;
9823;SDS011;4951;50.778;7.196;2023-08-06T08:38:26;3.77;;;2.60;;
9823;SDS011;4951;50.778;7.196;2023-08-06T08:40:55;3.23;;;2.90;;
9823;SDS011;4951;50.778;7.196;2023-08-06T08:43:24;2.47;;;2.27;;
9823;SDS011;4951;50.778;7.196;2023-08-06T08:45:55;2.70;;;2.50;;
9823;SDS011;4951;50.778;7.196;2023-08-06T08:48:24;4.17;;;2.87;;
9823;SDS011;4951;50.778;7.196;2023-08-06T08:50:54;5.80;;;2.47;;
9823;SDS011;4951;50.778;7.196;2023-08-06T08:53:22;4.13;;;2.80;;
9823;SDS011;4951;50.778;7.196;2023-08-06T08:55:51;4.07;;;2.93;;
9823;SDS011;4951;50.778;7.196;2023-08-06T08:58:19;3.40;;;3.10;;
9823;SDS011;4951;50.778;7.196;2023-08-06T09:00:47;3.10;;;2.90;;
9823;SDS011;4951;50.778;7.196;2023-08-06T09:03:16;3.40;;;3.10;;
9823;SDS011;4951;50.778;7.196;2023-08-06T09:05:44;4.67;;;3.17;;
9823;SDS011;4951;50.778;7.196;2023-08-06T09:08:17;4.37;;;3.80;;
9823;SDS011;4951;50.778;7.196;2023-08-06T09:10:48;3.80;;;2.93;;
9823;SDS011;4951;50.778;7.196;2023-08-06T09:13:17;5.90;;;3.17;;
9823;SDS011;4951;50.778;7.196;2023-08-06T09:15:45;4.20;;;3.80;;
9823;SDS011;4951;50.778;7.196;2023-08-06T09:18:13;4.90;;;3.73;;
9823;SDS011;4951;50.778;7.196;2023-08-06T09:20:43;4.70;;;3.40;;
9823;SDS011;4951;50.778;7.196;2023-08-06T09:23:12;6.23;;;3.47;;
9823;SDS011;4951;50.778;7.196;2023-08-06T09:25:39;3.63;;;3.10;;
9823;SDS011;4951;50.778;7.196;2023-08-06T09:28:08;3.70;;;3.40;;
9823;SDS011;4951;50.778;7.196;2023-08-06T09:30:36;4.87;;;2.97;;
9823;SDS011;4951;50.778;7.196;2023-08-06T09:33:07;4.00;;;3.10;;
9823;SDS011;4951;50.778;7.196;2023-08-06T09:35:35;3.10;;;2.90;;
9823;SDS011;4951;50.778;7.196;2023-08-06T09:38:09;2.63;;;2.27;;
9823;SDS011;4951;50.778;7.196;2023-08-06T09:40:38;4.00;;;3.00;;
9823;SDS011;4951;50.778;7.196;2023-08-06T09:43:07;2.50;;;2.30;;
9823;SDS011;4951;50.778;7.196;2023-08-06T09:45:35;2.47;;;2.00;;
9823;SDS011;4951;50.778;7.196;2023-08-06T09:48:05;1.30;;;1.20;;
9823;SDS011;4951;50.778;7.196;2023-08-06T09:50:33;1.53;;;1.43;;
9823;SDS011;4951;50.778;7.196;2023-08-06T09:53:02;5.47;;;1.23;;
9823;SDS011;4951;50.778;7.196;2023-08-06T09:55:33;2.60;;;1.00;;
9823;SDS011;4951;50.778;7.196;2023-08-06T09:58:02;1.33;;;1.00;;
9823;SDS011;4951;50.778;7.196;2023-08-06T10:00:31;5.13;;;1.33;;
9823;SDS011;4951;50.778;7.196;2023-08-06T10:03:00;2.17;;;1.27;;
9823;SDS011;4951;50.778;7.196;2023-08-06T10:05:28;0.90;;;0.90;;
9823;SDS011;4951;50.778;7.196;2023-08-06T10:07:58;2.13;;;0.97;;
9823;SDS011;4951;50.778;7.196;2023-08-06T10:10:27;1.50;;;0.83;;
9823;SDS011;4951;50.778;7.196;2023-08-06T10:12:57;1.30;;;1.00;;
9823;SDS011;4951;50.778;7.196;2023-08-06T10:15:26;0.90;;;0.90;;
9823;SDS011;4951;50.778;7.196;2023-08-06T10:17:56;1.47;;;1.17;;
9823;SDS011;4951;50.778;7.196;2023-08-06T10:20:26;4.03;;;1.10;;
9823;SDS011;4951;50.778;7.196;2023-08-06T10:23:00;2.27;;;1.30;;
9823;SDS011;4951;50.778;7.196;2023-08-06T10:25:30;1.27;;;1.17;;
9823;SDS011;4951;50.778;7.196;2023-08-06T10:28:02;3.03;;;1.13;;
9823;SDS011;4951;50.778;7.196;2023-08-06T10:30:41;1.10;;;1.00;;
9823;SDS011;4951;50.778;7.196;2023-08-06T10:33:10;2.67;;;1.23;;
9823;SDS011;4951;50.778;7.196;2023-08-06T10:35:38;2.57;;;1.30;;
9823;SDS011;4951;50.778;7.196;2023-08-06T10:38:09;6.33;;;1.70;;
9823;SDS011;4951;50.778;7.196;2023-08-06T10:40:39;4.77;;;2.13;;
9823;SDS011;4951;50.778;7.196;2023-08-06T10:43:24;8.53;;;3.20;;
9823;SDS011;4951;50.778;7.196;2023-08-06T10:45:54;8.93;;;4.00;;
9823;SDS011;4951;50.778;7.196;2023-08-06T10:48:29;4.50;;;2.77;;
9823;SDS011;4951;50.778;7.196;2023-08-06T10:50:59;4.23;;;2.67;;
9823;SDS011;4951;50.778;7.196;2023-08-06T10:53:27;3.90;;;3.10;;
9823;SDS011;4951;50.778;7.196;2023-08-06T10:55:56;4.30;;;2.90;;
9823;SDS011;4951;50.778;7.196;2023-08-06T10:58:31;5.37;;;3.40;;
9823;SDS011;4951;50.778;7.196;2023-08-06T11:00:59;6.87;;;3.77;;
9823;SDS011;4951;50.778;7.196;2023-08-06T11:03:26;5.53;;;3.43;;
9823;SDS011;4951;50.778;7.196;2023-08-06T11:05:54;6.40;;;3.97;;
9823;SDS011;4951;50.778;7.196;2023-08-06T11:08:25;4.93;;;3.33;;
9823;SDS011;4951;50.778;7.196;2023-08-06T11:10:52;6.03;;;3.73;;
9823;SDS011;4951;50.778;7.196;2023-08-06T11:13:21;4.60;;;2.77;;
9823;SDS011;4951;50.778;7.196;2023-08-06T11:15:49;6.00;;;4.00;;
9823;SDS011;4951;50.778;7.196;2023-08-06T11:18:20;4.47;;;3.10;;
9823;SDS011;4951;50.778;7.196;2023-08-06T11:20:48;4.73;;;3.17;;
9823;SDS011;4951;50.778;7.196;2023-08-06T11:23:15;7.27;;;2.60;;
9823;SDS011;4951;50.778;7.196;2023-08-06T11:25:43;6.33;;;3.27;;
9823;SDS011;4951;50.778;7.196;2023-08-06T11:28:11;5.90;;;2.80;;
9823;SDS011;4951;50.778;7.196;2023-08-06T11:30:41;4.97;;;2.40;;
9823;SDS011;4951;50.778;7.196;2023-08-06T11:33:10;7.10;;;3.00;;
9823;SDS011;4951;50.778;7.196;2023-08-06T11:35:37;6.97;;;2.63;;
9823;SDS011;4951;50.778;7.196;2023-08-06T11:38:05;7.53;;;2.70;;
9823;SDS011;4951;50.778;7.196;2023-08-06T11:40:32;5.73;;;2.60;;
9823;SDS011;4951;50.778;7.196;2023-08-06T11:43:01;4.63;;;2.20;;
9823;SDS011;4951;50.778;7.196;2023-08-06T11:45:29;5.53;;;3.00;;
9823;SDS011;4951;50.778;7.196;2023-08-06T11:47:56;6.07;;;2.20;;
9823;SDS011;4951;50.778;7.196;2023-08-06T11:50:25;5.90;;;2.00;;
9823;SDS011;4951;50.778;7.196;2023-08-06T11:52:54;7.70;;;2.37;;
9823;SDS011;4951;50.778;7.196;2023-08-06T11:55:24;5.37;;;2.27;;
9823;SDS011;4951;50.778;7.196;2023-08-06T11:57:55;4.90;;;2.43;;
9823;SDS011;4951;50.778;7.196;2023-08-06T12:00:25;6.73;;;2.37;;
9823;SDS011;4951;50.778;7.196;2023-08-06T12:02:53;3.37;;;2.20;;
9823;SDS011;4951;50.778;7.196;2023-08-06T12:05:20;4.63;;;2.20;;
9823;SDS011;4951;50.778;7.196;2023-08-06T12:07:52;4.63;;;2.07;;
9823;SDS011;4951;50.778;7.196;2023-08-06T12:10:24;3.53;;;2.20;;
9823;SDS011;4951;50.778;7.196;2023-08-06T12:12:53;3.40;;;2.00;;
9823;SDS011;4951;50.778;7.196;2023-08-06T12:15:20;6.70;;;2.53;;
9823;SDS011;4951;50.778;7.196;2023-08-06T12:17:49;5.33;;;2.40;;
9823;SDS011;4951;50.778;7.196;2023-08-06T12:20:17;4.13;;;2.20;;
9823;SDS011;4951;50.778;7.196;2023-08-06T12:22:44;4.93;;;2.33;;
9823;SDS011;4951;50.778;7.196;2023-08-06T12:25:13;6.93;;;2.77;;
9823;SDS011;4951;50.778;7.196;2023-08-06T12:27:41;4.07;;;2.60;;
9823;SDS011;4951;50.778;7.196;2023-08-06T12:30:11;5.53;;;2.93;;
9823;SDS011;4951;50.778;7.196;2023-08-06T12:32:38;4.57;;;2.90;;
9823;SDS011;4951;50.778;7.196;2023-08-06T12:35:06;4.33;;;2.30;;
9823;SDS011;4951;50.778;7.196;2023-08-06T12:37:34;6.67;;;2.00;;
9823;SDS011;4951;50.778;7.196;2023-08-06T12:40:05;5.70;;;2.60;;
9823;SDS011;4951;50.778;7.196;2023-08-06T12:42:34;4.80;;;2.50;;
9823;SDS011;4951;50.778;7.196;2023-08-06T12:45:02;4.73;;;2.30;;
9823;SDS011;4951;50.778;7.196;2023-08-06T12:47:30;4.47;;;1.80;;
9823;SDS011;4951;50.778;7.196;2023-08-06T12:49:57;3.63;;;1.70;;
9823;SDS011;4951;50.778;7.196;2023-08-06T12:52:24;4.33;;;2.20;;
9823;SDS011;4951;50.778;7.196;2023-08-06T12:54:52;4.30;;;2.10;;
9823;SDS011;4951;50.778;7.196;2023-08-06T12:57:19;3.47;;;2.33;;
9823;SDS011;4951;50.778;7.196;2023-08-06T12:59:47;4.60;;;2.13;;
9823;SDS011;4951;50.778;7.196;2023-08-06T13:02:15;5.17;;;1.97;;
9823;SDS011;4951;50.778;7.196;2023-08-06T13:04:42;7.07;;;2.87;;
9823;SDS011;4951;50.778;7.196;2023-08-06T13:07:10;4.77;;;2.07;;
9823;SDS011;4951;50.778;7.196;2023-08-06T13:09:38;4.40;;;2.10;;
9823;SDS011;4951;50.778;7.196;2023-08-06T13:12:06;3.97;;;2.40;;
9823;SDS011;4951;50.778;7.196;2023-08-06T13:14:33;3.17;;;2.20;;
9823;SDS011;4951;50.778;7.196;2023-08-06T13:17:02;2.50;;;1.57;;
9823;SDS011;4951;50.778;7.196;2023-08-06T13:19:31;4.70;;;2.67;;
9823;SDS011;4951;50.778;7.196;2023-08-06T13:22:03;4.00;;;1.50;;
9823;SDS011;4951;50.778;7.196;2023-08-06T13:24:33;1.70;;;1.50;;
9823;SDS011;4951;50.778;7.196;2023-08-06T13:27:01;1.80;;;1.60;;
9823;SDS011;4951;50.778;7.196;2023-08-06T13:29:28;4.10;;;1.60;;
9823;SDS011;4951;50.778;7.196;2023-08-06T13:31:56;3.27;;;1.60;;
9823;SDS011;4951;50.778;7.196;2023-08-06T13:34:25;2.70;;;1.60;;
9823;SDS011;4951;50.778;7.196;2023-08-06T13:36:52;3.43;;;2.07;;
9823;SDS011;4951;50.778;7.196;2023-08-06T13:39:18;2.07;;;1.60;;
9823;SDS011;4951;50.778;7.196;2023-08-06T13:41:48;2.43;;;2.00;;
9823;SDS011;4951;50.778;7.196;2023-08-06T13:44:15;4.77;;;1.90;;
9823;SDS011;4951;50.778;7.196;2023-08-06T13:46:43;4.60;;;1.93;;
9823;SDS011;4951;50.778;7.196;2023-08-06T13:49:11;3.37;;;1.90;;
9823;SDS011;4951;50.778;7.196;2023-08-06T13:51:40;3.47;;;2.03;;
9823;SDS011;4951;50.778;7.196;2023-08-06T13:54:07;5.23;;;2.13;;
9823;SDS011;4951;50.778;7.196;2023-08-06T13:56:34;2.70;;;2.30;;
9823;SDS011;4951;50.778;7.196;2023-08-06T13:59:03;3.93;;;2.20;;
9823;SDS011;4951;50.778;7.196;2023-08-06T14:01:31;3.90;;;3.23;;
9823;SDS011;4951;50.778;7.196;2023-08-06T14:03:59;3.90;;;3.17;;
9823;SDS011;4951;50.778;7.196;2023-08-06T14:06:26;4.30;;;2.57;;
9823;SDS011;4951;50.778;7.196;2023-08-06T14:08:55;5.53;;;2.73;;
9823;SDS011;4951;50.778;7.196;2023-08-06T14:11:22;3.83;;;2.40;;
9823;SDS011;4951;50.778;7.196;2023-08-06T14:13:49;6.47;;;2.53;;
9823;SDS011;4951;50.778;7.196;2023-08-06T14:16:17;4.17;;;3.30;;
9823;SDS011;4951;50.778;7.196;2023-08-06T14:18:44;5.67;;;3.60;;
9823;SDS011;4951;50.778;7.196;2023-08-06T14:21:12;4.20;;;2.60;;
9823;SDS011;4951;50.778;7.196;2023-08-06T14:23:40;3.23;;;2.23;;
9823;SDS011;4951;50.778;7.196;2023-08-06T14:26:09;4.40;;;2.47;;
9823;SDS011;4951;50.778;7.196;2023-08-06T14:28:36;4.50;;;2.30;;
9823;SDS011;4951;50.778;7.196;2023-08-06T14:31:03;4.57;;;2.13;;
9823;SDS011;4951;50.778;7.196;2023-08-06T14:33:31;4.27;;;2.07;;
9823;SDS011;4951;50.778;7.196;2023-08-06T14:35:58;7.07;;;2.47;;
9823;SDS011;4951;50.778;7.196;2023-08-06T14:38:28;3.50;;;1.70;;
9823;SDS011;4951;50.778;7.196;2023-08-06T14:40:55;4.33;;;1.70;;
9823;SDS011;4951;50.778;7.196;2023-08-06T14:43:26;4.40;;;1.67;;
9823;SDS011;4951;50.778;7.196;2023-08-06T14:45:53;4.03;;;1.80;;
9823;SDS011;4951;50.778;7.196;2023-08-06T14:48:21;2.43;;;1.40;;
9823;SDS011;4951;50.778;7.196;2023-08-06T14:50:50;4.13;;;1.87;;
9823;SDS011;4951;50.778;7.196;2023-08-06T14:53:17;2.80;;;1.50;;
9823;SDS011;4951;50.778;7.196;2023-08-06T14:55:44;5.37;;;1.80;;
9823;SDS011;4951;50.778;7.196;2023-08-06T14:58:12;4.90;;;1.60;;
9823;SDS011;4951;50.778;7.196;2023-08-06T15:00:40;5.53;;;1.77;;
9823;SDS011;4951;50.778;7.196;2023-08-06T15:03:08;5.03;;;1.70;;
9823;SDS011;4951;50.778;7.196;2023-08-06T15:05:35;4.07;;;1.37;;
9823;SDS011;4951;50.778;7.196;2023-08-06T15:08:03;3.50;;;1.20;;
9823;SDS011;4951;50.778;7.196;2023-08-06T15:10:31;1.97;;;1.27;;
9823;SDS011;4951;50.778;7.196;2023-08-06T15:12:59;1.40;;;1.10;;
9823;SDS011;4951;50.778;7.196;2023-08-06T15:15:28;2.60;;;1.73;;
9823;SDS011;4951;50.778;7.196;2023-08-06T15:17:58;1.93;;;1.10;;
9823;SDS011;4951;50.778;7.196;2023-08-06T15:20:25;1.73;;;1.10;;
9823;SDS011;4951;50.778;7.196;2023-08-06T15:22:52;2.30;;;1.07;;
9823;SDS011;4951;50.778;7.196;2023-08-06T15:25:22;0.90;;;0.90;;